createdAt,value
2023-02-28T00:00:38.495Z,102514.41
2023-02-28T00:03:05.127Z,102514.28
2023-02-28T00:05:31.863Z,102512.41
2023-02-28T00:07:58.359Z,102511.59
2023-02-28T00:10:27.986Z,102510.03
2023-02-28T00:12:59.461Z,102512.56
2023-02-28T00:15:26.051Z,102509.81
2023-02-28T00:17:52.679Z,102514.41
2023-02-28T00:20:20.130Z,102509.53
2023-02-28T00:22:49.728Z,102507.78
2023-02-28T00:25:19.775Z,102508.63
2023-02-28T00:27:46.950Z,102504.34
2023-02-28T00:30:16.744Z,102511.25
2023-02-28T00:32:43.422Z,102512.03
2023-02-28T00:35:11.652Z,102513.75
2023-02-28T00:37:38.704Z,102510.34
2023-02-28T00:40:07.252Z,102516.56
2023-02-28T00:42:35.472Z,102522.06
2023-02-28T00:45:02.546Z,102529.97
2023-02-28T00:47:29.048Z,102523.78
2023-02-28T00:49:55.725Z,102524.63
2023-02-28T00:52:22.749Z,102524.75
2023-02-28T00:54:49.290Z,102516.13
2023-02-28T00:57:15.931Z,102518.75
2023-02-28T00:59:42.418Z,102527.44
2023-02-28T01:02:08.879Z,102522.25
2023-02-28T01:04:35.374Z,102530.13
2023-02-28T01:07:01.918Z,102521.44
2023-02-28T01:09:28.403Z,102516.31
2023-02-28T01:11:55.110Z,102523.34
2023-02-28T01:14:21.646Z,102525.13
2023-02-28T01:16:48.311Z,102524.31
2023-02-28T01:19:14.893Z,102518.19
2023-02-28T01:21:41.581Z,102508.59
2023-02-28T01:24:08.288Z,102511.34
2023-02-28T01:26:34.822Z,102510.25
2023-02-28T01:29:01.294Z,102509.34
2023-02-28T01:31:28.210Z,102509.50
2023-02-28T01:33:54.937Z,102509.56
2023-02-28T01:36:24.466Z,102503.50
2023-02-28T01:38:51.584Z,102503.56
2023-02-28T01:41:21.822Z,102498.94
2023-02-28T01:43:48.213Z,102503.34
2023-02-28T01:46:15.717Z,102498.94
2023-02-28T01:48:58.917Z,102502.59
2023-02-28T01:51:51.684Z,102503.50
2023-02-28T01:54:23.586Z,102505.25
2023-02-28T01:56:59.924Z,102510.50
2023-02-28T01:59:34.167Z,102510.53
2023-02-28T02:02:01.647Z,102509.78
2023-02-28T02:04:38.562Z,102506.31
2023-02-28T02:07:35.554Z,102512.41
2023-02-28T02:10:16.170Z,102509.94
2023-02-28T02:12:54.380Z,102510.16
2023-02-28T02:15:30.833Z,102505.81
2023-02-28T02:18:06.998Z,102503.97
2023-02-28T02:20:47.520Z,102504.94
2023-02-28T02:23:27.802Z,102505.09
2023-02-28T02:26:11.688Z,102500.78
2023-02-28T02:28:56.872Z,102503.38
2023-02-28T02:31:30.818Z,102498.09
2023-02-28T02:34:27.181Z,102504.19
2023-02-28T02:37:08.859Z,102504.97
2023-02-28T02:39:51.056Z,102503.47
2023-02-28T02:42:27.859Z,102502.72
2023-02-28T02:45:02.403Z,102501.06
2023-02-28T02:47:31.980Z,102498.28
2023-02-28T02:50:05.548Z,102497.47
2023-02-28T02:52:39.481Z,102506.22
2023-02-28T02:55:09.177Z,102500.19
2023-02-28T02:57:41.588Z,102495.84
2023-02-28T03:00:09.952Z,102495.13
2023-02-28T03:02:39.268Z,102504.59
2023-02-28T03:05:13.925Z,102505.41
2023-02-28T03:07:40.372Z,102502.00
2023-02-28T03:10:35.719Z,102502.88
2023-02-28T03:13:26.530Z,102514.28
2023-02-28T03:15:55.876Z,102509.22
2023-02-28T03:18:31.386Z,102514.56
2023-02-28T03:21:13.642Z,102512.91
2023-02-28T03:23:45.245Z,102517.28
2023-02-28T03:26:24.680Z,102509.50
2023-02-28T03:29:04.083Z,102509.56
2023-02-28T03:31:39.978Z,102517.28
2023-02-28T03:34:11.642Z,102514.75
2023-02-28T03:36:46.569Z,102516.53
2023-02-28T03:39:24.684Z,102515.69
2023-02-28T03:42:05.728Z,102518.31
2023-02-28T03:44:41.600Z,102519.19
2023-02-28T03:47:18.638Z,102522.69
2023-02-28T03:49:57.981Z,102523.69
2023-02-28T03:52:28.871Z,102523.84
2023-02-28T03:54:59.152Z,102531.59
2023-02-28T03:57:39.012Z,102522.91
2023-02-28T04:00:11.408Z,102521.22
2023-02-28T04:02:37.867Z,102524.66
2023-02-28T04:05:04.621Z,102529.06
2023-02-28T04:07:32.371Z,102526.50
2023-02-28T04:09:59.467Z,102527.34
2023-02-28T04:12:26.316Z,102523.88
2023-02-28T04:14:52.762Z,102527.34
2023-02-28T04:17:19.840Z,102521.28
2023-02-28T04:19:46.306Z,102535.22
2023-02-28T04:22:12.786Z,102522.94
2023-02-28T04:24:42.340Z,102528.28
2023-02-28T04:27:09.801Z,102524.06
2023-02-28T04:29:36.299Z,102519.69
2023-02-28T04:32:03.600Z,102532.78
2023-02-28T04:34:32.401Z,102526.69
2023-02-28T04:37:12.497Z,102531.94
2023-02-28T04:39:40.914Z,102531.97
2023-02-28T04:42:07.414Z,102532.91
2023-02-28T04:44:33.896Z,102533.69
2023-02-28T04:47:00.532Z,102533.69
2023-02-28T04:49:26.981Z,102538.16
2023-02-28T04:51:54.069Z,102540.81
2023-02-28T04:54:20.972Z,102534.69
2023-02-28T04:56:49.447Z,102544.19
2023-02-28T04:59:15.953Z,102538.03
2023-02-28T05:01:47.020Z,102543.28
2023-02-28T05:04:13.518Z,102535.47
2023-02-28T05:06:40.244Z,102537.25
2023-02-28T05:09:06.694Z,102547.72
2023-02-28T05:11:36.097Z,102548.69
2023-02-28T05:14:10.121Z,102546.03
2023-02-28T05:16:36.602Z,102554.88
2023-02-28T05:19:03.721Z,102554.91
2023-02-28T05:21:35.892Z,102555.69
2023-02-28T05:24:05.244Z,102560.03
2023-02-28T05:26:32.345Z,102560.09
2023-02-28T05:28:58.821Z,102566.38
2023-02-28T05:31:25.390Z,102559.34
2023-02-28T05:33:52.527Z,102561.91
2023-02-28T05:36:19.177Z,102565.44
2023-02-28T05:38:48.615Z,102556.63
2023-02-28T05:41:15.830Z,102563.72
2023-02-28T05:43:42.388Z,102560.22
2023-02-28T05:46:11.487Z,102567.19
2023-02-28T05:48:40.018Z,102569.78
2023-02-28T05:51:07.825Z,102575.88
2023-02-28T05:53:35.089Z,102569.84
2023-02-28T05:56:02.049Z,102572.28
2023-02-28T05:58:31.744Z,102572.38
2023-02-28T06:00:59.518Z,102582.00
2023-02-28T06:03:26.856Z,102581.22
2023-02-28T06:05:53.451Z,102575.09
2023-02-28T06:08:19.952Z,102572.47
2023-02-28T06:10:46.629Z,102568.97
2023-02-28T06:13:13.885Z,102583.78
2023-02-28T06:15:40.615Z,102582.91
2023-02-28T06:18:07.110Z,102575.88
2023-02-28T06:20:34.343Z,102581.97
2023-02-28T06:23:00.881Z,102581.88
2023-02-28T06:25:28.572Z,102592.34
2023-02-28T06:27:56.270Z,102591.50
2023-02-28T06:30:27.632Z,102587.19
2023-02-28T06:32:55.338Z,102589.75
2023-02-28T06:35:22.296Z,102597.50
2023-02-28T06:37:48.801Z,102600.97
2023-02-28T06:40:15.960Z,102605.31
2023-02-28T06:42:42.631Z,102605.22
2023-02-28T06:45:10.637Z,102614.03
2023-02-28T06:47:42.352Z,102609.59
2023-02-28T06:50:11.257Z,102610.41
2023-02-28T06:52:38.412Z,102623.53
2023-02-28T06:55:07.067Z,102618.25
2023-02-28T06:57:34.855Z,102612.06
2023-02-28T07:00:04.157Z,102623.44
2023-02-28T07:02:30.592Z,102622.47
2023-02-28T07:04:57.148Z,102623.31
2023-02-28T07:07:23.605Z,102618.91
2023-02-28T07:09:50.121Z,102623.16
2023-02-28T07:12:16.694Z,102614.34
2023-02-28T07:14:43.162Z,102621.31
2023-02-28T07:17:12.993Z,102620.38
2023-02-28T07:19:40.553Z,102625.53
2023-02-28T07:22:08.192Z,102620.97
2023-02-28T07:24:34.873Z,102622.69
2023-02-28T07:27:02.498Z,102618.19
2023-02-28T07:29:29.232Z,102617.97
2023-02-28T07:31:55.846Z,102616.75
2023-02-28T07:34:23.044Z,102624.38
2023-02-28T07:36:49.734Z,102625.56
2023-02-28T07:39:16.317Z,102629.56
2023-02-28T07:41:44.694Z,102626.44
2023-02-28T07:44:14.580Z,102638.13
2023-02-28T07:46:41.132Z,102635.22
2023-02-28T07:49:07.695Z,102644.06
2023-02-28T07:51:34.211Z,102641.34
2023-02-28T07:54:00.741Z,102647.22
2023-02-28T07:56:27.586Z,102641.03
2023-02-28T07:58:54.390Z,102643.44
2023-02-28T08:01:21.035Z,102634.28
2023-02-28T08:03:47.475Z,102638.22
2023-02-28T08:06:23.344Z,102640.22
2023-02-28T08:08:50.081Z,102637.88
2023-02-28T08:11:17.271Z,102637.63
2023-02-28T08:13:45.068Z,102642.41
2023-02-28T08:16:15.512Z,102633.75
2023-02-28T08:18:42.043Z,102635.59
2023-02-28T08:21:10.827Z,102623.53
2023-02-28T08:23:37.808Z,102625.91
2023-02-28T08:26:05.284Z,102635.44
2023-02-28T08:28:31.860Z,102632.69
2023-02-28T08:30:58.479Z,102637.78
2023-02-28T08:33:26.069Z,102634.22
2023-02-28T08:35:58.645Z,102643.28
2023-02-28T08:38:25.465Z,102640.91
2023-02-28T08:40:58.798Z,102638.91
2023-02-28T08:43:25.355Z,102633.81
2023-02-28T08:45:57.758Z,102641.16
2023-02-28T08:48:25.642Z,102637.38
2023-02-28T08:51:08.547Z,102631.81
2023-02-28T08:53:36.686Z,102638.97
2023-02-28T08:56:06.423Z,102633.91
2023-02-28T08:58:33.356Z,102636.84
2023-02-28T09:00:59.966Z,102632.00
2023-02-28T09:03:27.918Z,102631.25
2023-02-28T09:05:59.966Z,102624.66
2023-02-28T09:08:29.051Z,102630.06
2023-02-28T09:10:58.029Z,102630.69
2023-02-28T09:13:26.094Z,102631.97
2023-02-28T09:15:53.010Z,102633.53
2023-02-28T09:18:20.012Z,102639.75
2023-02-28T09:20:46.985Z,102633.50
2023-02-28T09:23:13.613Z,102630.91
2023-02-28T09:25:47.987Z,102631.13
2023-02-28T09:28:16.836Z,102632.75
2023-02-28T09:30:46.071Z,102629.63
2023-02-28T09:33:13.164Z,102636.38
2023-02-28T09:35:39.742Z,102628.59
2023-02-28T09:38:06.350Z,102623.59
2023-02-28T09:40:32.884Z,102624.59
2023-02-28T09:43:00.709Z,102628.56
2023-02-28T09:45:40.328Z,102627.47
2023-02-28T09:48:21.798Z,102626.81
2023-02-28T09:50:56.521Z,102633.47
2023-02-28T09:53:39.778Z,102630.06
2023-02-28T09:56:10.849Z,102635.66
2023-02-28T09:58:50.495Z,102628.78
2023-02-28T10:01:29.125Z,102629.97
2023-02-28T10:03:58.310Z,102632.22
2023-02-28T10:06:31.432Z,102626.03
2023-02-28T10:09:10.226Z,102631.41
2023-02-28T10:11:39.680Z,102628.16
2023-02-28T10:14:11.643Z,102629.97
2023-02-28T10:17:09.571Z,102622.56
2023-02-28T10:19:51.611Z,102623.34
2023-02-28T10:22:21.851Z,102629.38
2023-02-28T10:24:53.958Z,102624.53
2023-02-28T10:27:33.012Z,102620.91
2023-02-28T10:30:01.948Z,102623.25
2023-02-28T10:32:39.730Z,102630.84
2023-02-28T10:35:19.288Z,102626.63
2023-02-28T10:37:56.297Z,102632.41
2023-02-28T10:40:22.722Z,102632.66
2023-02-28T10:43:05.817Z,102636.00
2023-02-28T10:45:35.847Z,102636.00
2023-02-28T10:48:28.657Z,102624.03
2023-02-28T10:50:58.951Z,102628.97
2023-02-28T10:53:28.457Z,102622.25
2023-02-28T10:56:09.855Z,102618.84
2023-02-28T10:59:03.379Z,102618.50
2023-02-28T11:01:37.931Z,102613.06
2023-02-28T11:04:17.330Z,102614.06
2023-02-28T11:06:44.210Z,102599.56
2023-02-28T11:09:23.376Z,102599.81
2023-02-28T11:11:50.411Z,102592.50
2023-02-28T11:14:30.150Z,102591.47
2023-02-28T11:17:02.475Z,102597.31
2023-02-28T11:19:45.042Z,102600.09
2023-02-28T11:22:17.146Z,102588.91
2023-02-28T11:24:46.864Z,102583.84
2023-02-28T11:27:48.037Z,102585.38
2023-02-28T11:30:39.618Z,102574.28
2023-02-28T11:33:52.320Z,102576.75
2023-02-28T11:36:25.756Z,102573.94
2023-02-28T11:38:55.121Z,102572.22
2023-02-28T11:41:44.143Z,102568.50
2023-02-28T11:44:19.434Z,102574.31
2023-02-28T11:46:57.325Z,102573.88
2023-02-28T11:49:45.464Z,102566.44
2023-02-28T11:52:22.283Z,102574.66
2023-02-28T11:55:18.325Z,102585.13
2023-02-28T11:58:26.544Z,102576.53
2023-02-28T12:01:04.364Z,102574.69
2023-02-28T12:03:52.304Z,102577.56
2023-02-28T12:06:30.780Z,102583.19
2023-02-28T12:09:10.298Z,102576.44
2023-02-28T12:11:46.066Z,102570.69
2023-02-28T12:14:50.828Z,102567.91
2023-02-28T12:17:44.210Z,102555.19
2023-02-28T12:20:24.034Z,102561.97
2023-02-28T12:23:11.463Z,102555.22
2023-02-28T12:25:52.615Z,102563.69
2023-02-28T12:28:24.749Z,102546.56
2023-02-28T12:31:00.167Z,102537.84
2023-02-28T12:33:34.667Z,102540.34
2023-02-28T12:36:08.961Z,102536.31
2023-02-28T12:38:41.268Z,102540.44
2023-02-28T12:41:30.337Z,102529.38
2023-02-28T12:44:04.878Z,102526.81
2023-02-28T12:46:39.840Z,102520.13
2023-02-28T12:49:13.898Z,102519.69
2023-02-28T12:51:42.092Z,102520.56
2023-02-28T12:54:28.035Z,102513.44
2023-02-28T12:57:22.362Z,102499.75
2023-02-28T12:59:56.964Z,102493.34
2023-02-28T13:02:42.318Z,102473.88
2023-02-28T13:05:09.418Z,102475.69
2023-02-28T13:08:17.896Z,102473.38
2023-02-28T13:10:48.125Z,102471.31
2023-02-28T13:13:21.503Z,102473.50
2023-02-28T13:16:09.026Z,102473.56
2023-02-28T13:18:45.436Z,102476.84
2023-02-28T13:21:28.385Z,102485.53
2023-02-28T13:24:00.874Z,102485.44
2023-02-28T13:26:36.709Z,102473.25
2023-02-28T13:29:28.490Z,102484.00
2023-02-28T13:32:06.606Z,102487.13
2023-02-28T13:35:05.211Z,102488.97
2023-02-28T13:37:31.608Z,102487.25
2023-02-28T13:40:00.368Z,102484.88
2023-02-28T13:42:35.250Z,102487.69
2023-02-28T13:45:04.894Z,102495.19
2023-02-28T13:47:33.328Z,102486.00
2023-02-28T13:50:28.711Z,102477.66
2023-02-28T13:53:16.579Z,102476.22
2023-02-28T13:56:02.388Z,102472.09
2023-02-28T13:59:16.532Z,102468.78
2023-02-28T14:02:15.504Z,102464.25
2023-02-28T14:07:48.347Z,102458.72
2023-02-28T14:10:40.243Z,102466.44
2023-02-28T14:13:25.043Z,102459.59
2023-02-28T14:16:00.196Z,102463.47
2023-02-28T14:18:33.117Z,102463.53
2023-02-28T14:21:26.693Z,102460.22
2023-02-28T14:24:11.817Z,102466.44
2023-02-28T14:26:56.843Z,102471.13
2023-02-28T14:29:59.561Z,102466.44
2023-02-28T14:32:34.819Z,102467.47
2023-02-28T14:35:21.396Z,102465.47
2023-02-28T14:37:50.740Z,102456.50
2023-02-28T14:40:26.215Z,102460.09
2023-02-28T14:43:00.804Z,102455.16
2023-02-28T14:45:31.509Z,102459.34
2023-02-28T14:47:59.711Z,102456.78
2023-02-28T14:50:33.713Z,102451.50
2023-02-28T14:53:00.302Z,102449.53
2023-02-28T14:55:35.777Z,102449.00
2023-02-28T14:58:07.361Z,102442.81
2023-02-28T15:00:34.728Z,102443.56
2023-02-28T15:03:13.035Z,102455.59
2023-02-28T15:05:40.056Z,102460.72
2023-02-28T15:08:17.308Z,102457.28
2023-02-28T15:10:59.696Z,102450.78
2023-02-28T15:13:51.507Z,102442.97
2023-02-28T15:16:23.107Z,102446.03
2023-02-28T15:18:54.914Z,102448.16
2023-02-28T15:21:24.711Z,102448.31
2023-02-28T15:24:25.224Z,102441.03
2023-02-28T15:26:57.301Z,102445.09
2023-02-28T15:29:27.492Z,102445.00
2023-02-28T15:32:05.608Z,102434.34
2023-02-28T15:34:43.295Z,102441.59
2023-02-28T15:37:27.940Z,102439.97
2023-02-28T15:39:57.070Z,102435.50
2023-02-28T15:42:32.442Z,102438.44
2023-02-28T15:45:00.731Z,102441.75
2023-02-28T15:47:30.169Z,102434.69
2023-02-28T15:50:03.274Z,102444.41
2023-02-28T15:52:39.411Z,102443.59
2023-02-28T15:55:24.983Z,102438.97
2023-02-28T15:57:55.811Z,102433.81
2023-02-28T16:00:25.835Z,102438.38
2023-02-28T16:02:52.740Z,102439.22
2023-02-28T16:05:32.671Z,102443.94
2023-02-28T16:08:01.844Z,102435.28
2023-02-28T16:10:29.682Z,102442.41
2023-02-28T16:12:58.266Z,102449.53
2023-02-28T16:15:27.878Z,102451.47
2023-02-28T16:17:55.533Z,102447.00
2023-02-28T16:20:27.561Z,102456.03
2023-02-28T16:22:54.615Z,102446.47
2023-02-28T16:25:27.188Z,102456.53
2023-02-28T16:27:54.944Z,102448.66
2023-02-28T16:30:24.122Z,102451.34
2023-02-28T16:32:52.053Z,102446.13
2023-02-28T16:35:20.097Z,102451.13
2023-02-28T16:37:46.604Z,102453.09
2023-02-28T16:40:26.235Z,102454.97
2023-02-28T16:42:58.023Z,102454.34
2023-02-28T16:45:27.108Z,102454.22
2023-02-28T16:47:54.498Z,102448.97
2023-02-28T16:50:29.334Z,102448.00
2023-02-28T16:52:56.501Z,102448.09
2023-02-28T16:55:24.903Z,102445.63
2023-02-28T16:57:56.673Z,102453.81
2023-02-28T17:00:24.326Z,102443.03
2023-02-28T17:02:51.716Z,102454.00
2023-02-28T17:05:19.705Z,102448.00
2023-02-28T17:07:47.548Z,102450.53
2023-02-28T17:10:15.970Z,102451.47
2023-02-28T17:12:42.467Z,102446.28
2023-02-28T17:15:11.039Z,102453.38
2023-02-28T17:17:38.773Z,102462.22
2023-02-28T17:20:06.730Z,102464.00
2023-02-28T17:22:34.847Z,102464.06
2023-02-28T17:25:01.368Z,102467.75
2023-02-28T17:27:28.093Z,102468.69
2023-02-28T17:29:54.698Z,102464.34
2023-02-28T17:32:21.246Z,102469.63
2023-02-28T17:34:47.846Z,102468.84
2023-02-28T17:37:14.544Z,102479.41
2023-02-28T17:39:41.001Z,102470.13
2023-02-28T17:42:07.509Z,102482.13
2023-02-28T17:44:34.053Z,102481.28
2023-02-28T17:47:00.949Z,102471.88
2023-02-28T17:49:28.239Z,102471.84
2023-02-28T17:51:54.662Z,102474.31
2023-02-28T17:54:21.174Z,102474.56
2023-02-28T17:56:47.731Z,102471.94
2023-02-28T18:02:01.711Z,102475.59
2023-02-28T18:04:28.312Z,102474.75
2023-02-28T18:06:55.013Z,102480.25
2023-02-28T18:09:23.226Z,102474.72
2023-02-28T18:11:51.132Z,102470.56
2023-02-28T18:14:19.585Z,102476.00
2023-02-28T18:19:24.398Z,102469.88
2023-02-28T18:21:53.520Z,102471.91
2023-02-28T18:24:21.667Z,102479.75
2023-02-28T18:26:48.307Z,102474.38
2023-02-28T18:29:23.948Z,102483.06
2023-02-28T18:31:51.540Z,102489.41
2023-02-28T18:34:18.289Z,102494.56
2023-02-28T18:36:47.045Z,102494.00
2023-02-28T18:39:13.841Z,102493.09
2023-02-28T18:41:40.444Z,102496.66
2023-02-28T18:44:17.724Z,102495.88
2023-02-28T18:46:46.016Z,102502.78
2023-02-28T18:49:12.574Z,102498.59
2023-02-28T18:51:39.292Z,102502.09
2023-02-28T18:54:06.224Z,102502.94
2023-02-28T18:56:32.826Z,102505.81
2023-02-28T18:58:59.393Z,102508.44
2023-02-28T19:01:30.084Z,102507.66
2023-02-28T19:03:57.434Z,102511.38
2023-02-28T19:06:23.899Z,102502.50
2023-02-28T19:08:54.718Z,102495.56
2023-02-28T19:11:21.486Z,102496.56
2023-02-28T19:13:48.514Z,102494.81
2023-02-28T19:16:17.473Z,102489.69
2023-02-28T19:18:44.238Z,102492.31
2023-02-28T19:21:12.428Z,102490.63
2023-02-28T19:23:39.661Z,102493.25
2023-02-28T19:26:12.811Z,102488.91
2023-02-28T19:28:40.174Z,102482.88
2023-02-28T19:31:16.203Z,102485.44
2023-02-28T19:33:43.221Z,102497.75
2023-02-28T19:36:13.833Z,102501.16
2023-02-28T19:38:40.618Z,102503.97
2023-02-28T19:41:10.179Z,102501.34
2023-02-28T19:43:37.102Z,102507.66
2023-02-28T19:46:04.449Z,102507.72
2023-02-28T19:48:31.227Z,102507.75
2023-02-28T19:50:58.616Z,102509.72
2023-02-28T19:53:26.861Z,102504.41
2023-02-28T19:55:54.691Z,102500.97
2023-02-28T19:58:21.253Z,102500.97
2023-02-28T20:00:47.743Z,102504.69
2023-02-28T20:03:14.242Z,102498.38
2023-02-28T20:05:40.740Z,102496.81
2023-02-28T20:08:07.995Z,102494.16
2023-02-28T20:10:35.257Z,102492.59
2023-02-28T20:13:01.868Z,102499.69
2023-02-28T20:15:28.560Z,102498.72
2023-02-28T20:17:57.320Z,102505.69
2023-02-28T20:20:24.229Z,102503.97
2023-02-28T20:22:50.697Z,102503.41
2023-02-28T20:25:17.484Z,102499.06
2023-02-28T20:27:44.140Z,102502.69
2023-02-28T20:30:11.656Z,102507.97
2023-02-28T20:32:39.678Z,102498.56
2023-02-28T20:35:08.629Z,102506.66
2023-02-28T20:37:35.345Z,102496.03
2023-02-28T20:40:04.493Z,102495.06
2023-02-28T20:42:31.090Z,102484.69
2023-02-28T20:44:57.593Z,102488.09
2023-02-28T20:47:24.060Z,102499.81
2023-02-28T20:49:50.539Z,102477.72
2023-02-28T20:52:16.975Z,102477.69
2023-02-28T20:54:43.453Z,102476.97
2023-02-28T20:57:10.014Z,102481.53
2023-02-28T20:59:36.535Z,102470.03
2023-02-28T21:02:03.018Z,102469.94
2023-02-28T21:04:30.215Z,102473.78
2023-02-28T21:06:56.699Z,102468.50
2023-02-28T21:09:23.321Z,102476.53
2023-02-28T21:11:53.689Z,102480.38
2023-02-28T21:14:20.099Z,102474.28
2023-02-28T21:16:46.910Z,102477.84
2023-02-28T21:19:13.433Z,102482.38
2023-02-28T21:21:45.244Z,102479.56
2023-02-28T21:24:13.430Z,102465.50
2023-02-28T21:26:41.760Z,102470.69
2023-02-28T21:29:08.581Z,102476.13
2023-02-28T21:31:35.988Z,102479.75
2023-02-28T21:34:05.494Z,102479.97
2023-02-28T21:36:35.704Z,102477.25
2023-02-28T21:39:13.230Z,102472.84
2023-02-28T21:41:39.692Z,102474.56
2023-02-28T21:44:06.175Z,102483.47
2023-02-28T21:46:33.810Z,102472.13
2023-02-28T21:49:00.591Z,102476.56
2023-02-28T21:51:31.607Z,102471.44
2023-02-28T21:54:01.527Z,102479.34
2023-02-28T21:56:34.830Z,102489.09
2023-02-28T21:59:02.671Z,102484.00
2023-02-28T22:01:38.326Z,102488.25
2023-02-28T22:04:07.465Z,102492.75
2023-02-28T22:06:37.361Z,102486.59
2023-02-28T22:09:06.952Z,102483.09
2023-02-28T22:11:35.105Z,102485.69
2023-02-28T22:14:01.789Z,102491.84
2023-02-28T22:16:33.145Z,102501.84
2023-02-28T22:19:06.400Z,102493.16
2023-02-28T22:21:34.431Z,102496.72
2023-02-28T22:24:01.312Z,102493.28
2023-02-28T22:26:28.277Z,102497.34
2023-02-28T22:28:54.900Z,102491.22
2023-02-28T22:31:23.355Z,102501.22
2023-02-28T22:33:51.823Z,102502.22
2023-02-28T22:36:19.777Z,102509.38
2023-02-28T22:38:47.820Z,102503.16
2023-02-28T22:41:15.099Z,102502.09
2023-02-28T22:43:43.325Z,102500.59
2023-02-28T22:46:12.458Z,102509.22
2023-02-28T22:48:39.438Z,102506.63
2023-02-28T22:51:14.904Z,102511.25
2023-02-28T22:53:43.287Z,102502.28
2023-02-28T22:56:11.199Z,102505.81
2023-02-28T22:58:37.830Z,102508.44
2023-02-28T23:01:12.651Z,102510.28
2023-02-28T23:03:39.899Z,102517.50
2023-02-28T23:06:22.995Z,102520.03
2023-02-28T23:08:51.415Z,102527.09
2023-02-28T23:11:25.013Z,102526.19
2023-02-28T23:14:01.243Z,102542.91
2023-02-28T23:16:35.934Z,102533.16
2023-02-28T23:19:12.264Z,102535.78
2023-02-28T23:21:39.057Z,102536.69
2023-02-28T23:24:10.556Z,102543.00
2023-02-28T23:26:43.770Z,102544.81
2023-02-28T23:29:12.107Z,102544.88
2023-02-28T23:31:38.718Z,102542.19
2023-02-28T23:34:05.328Z,102542.91
2023-02-28T23:36:32.135Z,102542.00
2023-02-28T23:38:58.978Z,102542.19
2023-02-28T23:41:25.896Z,102542.28
2023-02-28T23:43:53.444Z,102529.06
2023-02-28T23:46:21.261Z,102532.47
2023-02-28T23:48:48.009Z,102528.13
2023-02-28T23:51:17.870Z,102528.06
2023-02-28T23:53:46.760Z,102516.75
2023-02-28T23:56:15.473Z,102511.50
2023-02-28T23:58:43.711Z,102508.97
